Time;durP1;ratioP1;P1;durP2;ratioP2;P2;SDS_P1;SDS_P2;PMS_P1;PMS_P2;Temp;Humidity;BMP_temperature;BMP_pressure;BME280_temperature;BME280_humidity;BME280_pressure;Samples;Min_cycle;Max_cycle;Signal;HPM_P1;HPM_P2
2022/01/14 00:01:04;;;;;;;30.70;18.90;;;;;;;4.51;77.38;103761.00;5109744;28;20020;-78
2022/01/14 00:03:30;;;;;;;32.95;18.85;;;;;;;4.45;77.19;103767.94;5100352;28;20429;-75
2022/01/14 00:05:55;;;;;;;29.92;18.05;;;;;;;4.46;77.28;103769.66;5110196;28;20020;-76
2022/01/14 00:08:20;;;;;;;28.20;18.60;;;;;;;4.45;77.01;103770.69;5097604;28;20073;-75
2022/01/14 00:10:49;;;;;;;31.20;17.92;;;;;;;4.40;77.31;103773.88;5093293;28;20451;-75
2022/01/14 00:16:02;;;;;;;34.35;17.80;;;;;;;4.40;77.15;103770.22;5094007;28;20108;-75
2022/01/14 00:18:28;;;;;;;26.60;17.05;;;;;;;4.43;77.21;103765.31;5097875;28;20031;-76
2022/01/14 00:20:53;;;;;;;29.17;17.52;;;;;;;4.38;77.46;103767.63;5098475;28;20027;-76
2022/01/14 00:23:26;;;;;;;28.08;18.10;;;;;;;4.38;77.38;103758.50;5098823;28;20040;-75
2022/01/14 00:34:03;;;;;;;26.90;16.48;;;;;;;4.37;76.53;103759.53;5100832;28;20098;-75
2022/01/14 00:36:28;;;;;;;25.25;16.48;;;;;;;4.35;76.92;103753.28;5103548;28;20035;-75
2022/01/14 00:38:53;;;;;;;27.20;16.35;;;;;;;4.31;76.63;103749.06;5107389;28;20063;-75
2022/01/14 00:41:18;;;;;;;25.65;16.65;;;;;;;4.32;77.05;103750.81;5107802;28;20024;-75
2022/01/14 00:43:44;;;;;;;32.17;17.17;;;;;;;4.28;76.64;103741.97;5106089;28;20024;-75
2022/01/14 00:46:10;;;;;;;28.15;17.00;;;;;;;4.29;76.85;103740.13;5107345;28;20505;-76
2022/01/14 00:48:38;;;;;;;25.50;16.45;;;;;;;4.30;76.83;103734.47;5103355;28;20036;-75
2022/01/14 00:51:03;;;;;;;27.23;16.70;;;;;;;4.27;76.79;103726.50;5103750;28;20024;-75
2022/01/14 00:53:29;;;;;;;26.90;16.50;;;;;;;4.29;76.99;103721.72;5097660;28;20036;-75
2022/01/14 00:56:05;;;;;;;23.25;15.40;;;;;;;4.30;76.54;103708.84;5094616;28;20062;-75
2022/01/14 01:01:14;;;;;;;29.13;16.80;;;;;;;4.37;76.56;103704.53;5109542;28;20069;-75
2022/01/14 01:03:40;;;;;;;38.00;16.35;;;;;;;4.24;75.86;103692.91;5091910;28;20032;-75
2022/01/14 01:06:06;;;;;;;24.50;15.63;;;;;;;4.24;76.87;103692.91;5101062;28;20020;-75
2022/01/14 01:08:33;;;;;;;26.15;15.68;;;;;;;4.21;76.50;103693.22;5111083;28;20436;-76
2022/01/14 01:10:58;;;;;;;29.17;15.98;;;;;;;4.22;76.66;103694.94;5108153;28;20130;-76
2022/01/14 01:13:28;;;;;;;23.02;13.68;;;;;;;4.22;76.28;103698.56;5108214;28;20478;-75
2022/01/14 01:15:54;;;;;;;20.67;14.25;;;;;;;4.24;76.46;103704.78;5114042;28;20038;-75
2022/01/14 01:18:21;;;;;;;22.20;14.57;;;;;;;4.21;76.49;103687.72;5110804;28;20054;-75
2022/01/14 01:20:48;;;;;;;29.52;15.25;;;;;;;4.16;76.19;103685.38;5097858;28;20029;-75
2022/01/14 01:23:14;;;;;;;24.23;15.38;;;;;;;4.18;76.56;103681.47;5097111;28;20059;-75
2022/01/14 01:25:45;;;;;;;20.77;14.35;;;;;;;4.16;76.52;103688.97;5102716;28;20028;-76
2022/01/14 01:28:11;;;;;;;20.10;13.85;;;;;;;4.16;76.23;103688.13;5118524;28;20073;-75
2022/01/14 01:33:05;;;;;;;19.33;14.05;;;;;;;4.17;75.99;103681.63;5110747;28;20028;-75
2022/01/14 01:35:30;;;;;;;21.35;14.05;;;;;;;4.14;76.19;103688.28;5096050;28;20032;-75
2022/01/14 01:37:56;;;;;;;22.15;14.80;;;;;;;4.15;76.19;103684.50;5105870;28;20016;-75
2022/01/14 01:40:22;;;;;;;21.48;14.10;;;;;;;4.12;76.10;103693.03;5109012;28;20128;-75
2022/01/14 01:42:48;;;;;;;23.52;14.50;;;;;;;4.10;76.29;103689.56;5097898;28;20039;-76
2022/01/14 01:45:21;;;;;;;19.80;13.68;;;;;;;4.12;75.96;103682.03;5095172;28;20050;-75
2022/01/14 01:47:50;;;;;;;23.33;13.32;;;;;;;4.13;76.17;103681.03;5105351;28;20431;-75
2022/01/14 01:50:18;;;;;;;22.02;13.95;;;;;;;4.08;76.25;103682.47;5101498;28;20382;-75
2022/01/14 01:52:44;;;;;;;23.02;14.43;;;;;;;4.07;75.96;103669.72;5110595;28;20046;-75
2022/01/14 01:55:11;;;;;;;22.13;13.65;;;;;;;4.03;76.63;103668.28;5101738;28;20557;-75
2022/01/14 01:57:36;;;;;;;22.63;13.85;;;;;;;4.05;76.28;103671.72;5113528;28;20044;-75
2022/01/14 02:00:07;;;;;;;18.17;13.50;;;;;;;4.06;76.78;103685.34;5094854;28;20020;-75
2022/01/14 02:02:35;;;;;;;21.52;13.27;;;;;;;4.09;76.15;103685.09;5095805;28;20040;-75
2022/01/14 02:05:01;;;;;;;20.65;13.20;;;;;;;4.05;76.02;103679.97;5105662;28;20016;-75
2022/01/14 02:07:26;;;;;;;21.58;14.18;;;;;;;4.06;76.69;103670.75;5097588;28;20542;-75
2022/01/14 02:09:51;;;;;;;22.98;14.00;;;;;;;4.05;76.34;103671.72;5095445;28;20030;-75
2022/01/14 02:12:19;;;;;;;20.08;13.63;;;;;;;3.98;76.46;103676.94;5113627;28;20024;-75
2022/01/14 02:15:09;;;;;;;19.92;14.30;;;;;;;3.98;76.28;103676.94;5112580;28;20031;-75
2022/01/14 02:18:14;;;;;;;20.85;13.40;;;;;;;3.99;76.26;103669.56;5114579;28;20070;-75
2022/01/14 02:23:17;;;;;;;20.63;13.00;;;;;;;4.01;76.03;103659.28;5112528;28;20128;-75
2022/01/14 02:25:44;;;;;;;19.48;13.65;;;;;;;3.97;76.28;103663.31;5109079;28;20132;-75
2022/01/14 02:28:13;;;;;;;17.75;13.40;;;;;;;4.02;76.15;103661.06;5107520;28;20038;-75
2022/01/14 02:30:41;;;;;;;19.52;13.38;;;;;;;4.04;76.45;103656.25;5114286;28;20023;-75
2022/01/14 02:33:08;;;;;;;20.42;13.27;;;;;;;4.02;75.97;103656.41;5115618;28;20030;-75
2022/01/14 02:35:34;;;;;;;21.02;13.52;;;;;;;4.00;76.34;103647.44;5110291;28;20032;-75
2022/01/14 02:38:00;;;;;;;17.15;12.95;;;;;;;4.01;76.13;103638.19;5094782;28;20024;-75
2022/01/14 02:40:26;;;;;;;19.75;12.90;;;;;;;4.04;76.00;103637.88;5103914;28;20070;-75
2022/01/14 02:42:52;;;;;;;20.67;13.00;;;;;;;4.03;76.00;103647.16;5114337;28;20031;-75
2022/01/14 02:45:18;;;;;;;19.27;12.95;;;;;;;3.99;75.98;103642.94;5103909;28;20016;-75
2022/01/14 02:47:44;;;;;;;17.17;11.63;;;;;;;4.03;75.84;103644.41;5101788;28;20032;-75
2022/01/14 02:50:16;;;;;;;21.02;11.73;;;;;;;3.98;75.57;103643.97;5107378;28;20028;-75
2022/01/14 02:52:54;;;;;;;15.60;11.85;;;;;;;4.00;75.57;103646.56;5114706;28;20011;-75
2022/01/14 02:55:22;;;;;;;15.82;11.57;;;;;;;3.95;75.27;103638.75;5103072;28;20036;-75
2022/01/14 02:57:51;;;;;;;16.75;11.98;;;;;;;3.93;75.49;103635.28;5104279;28;20048;-76
2022/01/14 03:00:19;;;;;;;16.30;11.60;;;;;;;3.92;75.53;103636.28;5094573;28;20379;-75
2022/01/14 03:02:47;;;;;;;16.52;11.82;;;;;;;3.93;75.69;103635.28;5098687;28;20023;-75
2022/01/14 03:05:15;;;;;;;17.75;11.82;;;;;;;3.95;75.39;103641.50;5113524;28;20042;-75
2022/01/14 03:07:42;;;;;;;15.73;11.68;;;;;;;3.92;75.07;103636.28;5110186;28;20028;-75
2022/01/14 03:10:10;;;;;;;21.38;11.52;;;;;;;3.90;75.24;103644.66;5112800;28;20043;-75
2022/01/14 03:12:36;;;;;;;14.77;11.48;;;;;;;3.88;75.71;103641.19;5110910;28;20031;-76
2022/01/14 03:15:02;;;;;;;15.88;11.60;;;;;;;3.89;75.39;103637.44;5110357;28;20035;-76
2022/01/14 03:17:28;;;;;;;20.92;11.82;;;;;;;3.89;75.35;103639.28;5104466;28;20032;-76
2022/01/14 03:19:54;;;;;;;18.60;13.10;;;;;;;3.86;75.70;103634.97;5094058;28;20024;-75
2022/01/14 03:22:25;;;;;;;17.95;11.98;;;;;;;3.87;75.60;103636.72;5110472;28;20019;-75
2022/01/14 03:27:16;;;;;;;18.95;12.98;;;;;;;3.88;75.76;103638.44;5094088;28;20067;-75
2022/01/14 03:29:41;;;;;;;15.50;11.43;;;;;;;3.91;75.46;103638.16;5093926;28;20024;-76
2022/01/14 03:32:07;;;;;;;16.75;12.00;;;;;;;3.90;75.46;103638.31;5098627;28;20024;-76
2022/01/14 03:34:33;;;;;;;17.77;12.02;;;;;;;3.88;75.15;103640.31;5099639;28;20032;-75
2022/01/14 03:36:58;;;;;;;20.00;11.68;;;;;;;3.84;75.16;103644.34;5112451;28;20035;-75
2022/01/14 03:39:24;;;;;;;17.42;11.70;;;;;;;3.85;75.31;103637.84;5111863;28;20031;-75
2022/01/14 03:41:50;;;;;;;15.82;12.07;;;;;;;3.85;75.72;103635.09;5101115;28;20031;-75
2022/01/14 03:44:16;;;;;;;17.63;11.90;;;;;;;3.83;75.28;103628.88;5106248;28;20024;-75
2022/01/14 03:46:42;;;;;;;18.20;11.93;;;;;;;3.84;75.23;103625.13;5099054;28;20020;-75
2022/01/14 03:49:07;;;;;;;21.42;12.85;;;;;;;3.82;74.98;103625.28;5100973;28;20063;-76
2022/01/14 03:51:32;;;;;;;18.52;13.30;;;;;;;3.81;75.38;103625.41;5106889;28;20103;-75
2022/01/14 03:53:58;;;;;;;22.95;12.60;;;;;;;3.81;75.72;103630.91;5093137;28;20037;-75
2022/01/14 03:56:25;;;;;;;17.52;12.52;;;;;;;3.81;75.60;103637.28;5106402;28;20091;-76
2022/01/14 03:58:51;;;;;;;19.40;12.38;;;;;;;3.82;75.48;103627.16;5097717;28;20379;-75
2022/01/14 04:01:16;;;;;;;21.10;13.25;;;;;;;3.80;75.78;103634.66;5104174;28;20032;-75
2022/01/14 04:03:43;;;;;;;23.80;12.35;;;;;;;3.79;75.88;103638.41;5113891;28;20043;-75
2022/01/14 04:06:10;;;;;;;19.17;12.02;;;;;;;3.79;75.57;103636.53;5100330;28;20032;-75
2022/01/14 04:08:37;;;;;;;20.85;12.35;;;;;;;3.74;75.89;103640.72;5110073;28;20514;-75
2022/01/14 04:11:03;;;;;;;19.73;13.02;;;;;;;3.77;75.78;103635.78;5101566;28;20439;-75
2022/01/14 04:13:53;;;;;;;23.20;12.52;;;;;;;3.76;76.06;103641.44;5112884;28;20102;-75
2022/01/14 04:16:20;;;;;;;19.75;12.15;;;;;;;3.83;75.61;103626.16;5103135;28;20058;-76
2022/01/14 04:18:48;;;;;;;23.67;12.70;;;;;;;3.78;75.29;103622.97;5113238;28;20423;-76
2022/01/14 04:21:14;;;;;;;17.98;12.02;;;;;;;3.81;75.22;103626.28;5108727;28;20426;-75
2022/01/14 04:23:39;;;;;;;21.77;12.52;;;;;;;3.77;75.96;103629.44;5094497;28;20106;-75
2022/01/14 04:26:04;;;;;;;19.52;13.02;;;;;;;3.78;75.32;103622.97;5109219;28;20386;-75
2022/01/14 04:28:35;;;;;;;34.33;12.02;;;;;;;3.73;75.56;103619.75;5098697;28;20471;-75
2022/01/14 04:31:02;;;;;;;22.60;12.48;;;;;;;3.69;75.51;103628.28;5100749;28;20024;-76
2022/01/14 04:33:29;;;;;;;21.58;12.90;;;;;;;3.72;75.42;103618.00;5107697;28;20474;-75
2022/01/14 04:35:56;;;;;;;17.80;11.55;;;;;;;3.69;75.59;103619.16;5104065;28;20032;-75
2022/01/14 04:38:22;;;;;;;21.95;12.10;;;;;;;3.66;75.46;103624.94;5100409;28;20028;-75
2022/01/14 04:40:48;;;;;;;15.13;11.43;;;;;;;3.71;75.41;103610.78;5096556;28;20066;-76
2022/01/14 04:43:16;;;;;;;18.13;11.05;;;;;;;3.69;75.44;103606.31;5093830;28;20102;-75
2022/01/14 04:45:54;;;;;;;32.40;11.65;;;;;;;3.63;75.67;103598.63;5105211;28;20038;-75
2022/01/14 04:48:20;;;;;;;16.17;10.95;;;;;;;3.66;75.82;103600.22;5101393;28;20509;-75
2022/01/14 04:50:45;;;;;;;15.90;12.05;;;;;;;3.69;75.52;103595.31;5097968;28;20056;-75
2022/01/14 04:53:11;;;;;;;21.98;11.57;;;;;;;3.67;75.56;103596.47;5096570;28;20492;-75
2022/01/14 04:55:37;;;;;;;15.38;11.60;;;;;;;3.69;75.29;103603.56;5096819;28;20020;-75
2022/01/14 04:58:03;;;;;;;13.98;10.57;;;;;;;3.67;75.73;103594.56;5101840;28;20038;-75
2022/01/14 05:00:29;;;;;;;14.35;11.05;;;;;;;3.68;75.51;103593.56;5108099;28;20023;-75
2022/01/14 05:02:55;;;;;;;17.33;10.70;;;;;;;3.65;75.35;103584.72;5095869;28;20070;-76
2022/01/14 05:05:23;;;;;;;18.63;10.45;;;;;;;3.64;75.41;103574.75;5110629;28;20525;-75
2022/01/14 05:07:50;;;;;;;15.43;11.30;;;;;;;3.66;75.83;103570.88;5096729;28;20074;-75
2022/01/14 05:12:50;;;;;;;15.15;10.40;;;;;;;3.62;75.69;103572.16;5111959;28;20031;-75
2022/01/14 05:15:17;;;;;;;15.27;10.30;;;;;;;3.69;75.79;103581.59;5112972;28;20038;-76
2022/01/14 05:17:44;;;;;;;12.60;9.05;;;;;;;3.67;75.29;103569.84;5101777;28;20031;-75
2022/01/14 05:20:10;;;;;;;16.58;10.20;;;;;;;3.60;74.90;103570.56;5107172;28;20073;-75
2022/01/14 05:22:36;;;;;;;16.50;10.43;;;;;;;3.59;75.05;103577.94;5114052;28;20130;-76
2022/01/14 05:25:02;;;;;;;15.73;10.73;;;;;;;3.58;75.05;103572.59;5104744;28;20521;-75
2022/01/14 05:27:27;;;;;;;34.05;10.35;;;;;;;3.51;74.50;103564.03;5114185;28;20030;-75
2022/01/14 05:29:52;;;;;;;12.25;9.25;;;;;;;3.61;75.62;103566.78;5107162;28;20015;-75
2022/01/14 05:32:20;;;;;;;19.67;9.63;;;;;;;3.57;74.93;103568.94;5110466;28;20028;-75
2022/01/14 05:34:46;;;;;;;13.25;10.50;;;;;;;3.56;75.52;103569.97;5100845;28;20028;-75
2022/01/14 05:37:11;;;;;;;17.02;10.93;;;;;;;3.53;75.21;103573.00;5108219;28;20090;-75
2022/01/14 05:39:37;;;;;;;28.73;10.43;;;;;;;3.52;74.86;103559.41;5098439;28;20020;-75
2022/01/14 05:42:03;;;;;;;15.30;9.57;;;;;;;3.50;75.52;103576.03;5096644;28;20036;-75
2022/01/14 05:44:30;;;;;;;15.43;10.38;;;;;;;3.53;75.30;103573.00;5100577;28;20118;-75
2022/01/14 05:46:57;;;;;;;12.27;9.60;;;;;;;3.50;75.21;103562.31;5110807;27;20031;-76
2022/01/14 05:49:22;;;;;;;13.90;10.55;;;;;;;3.50;74.99;103565.06;5098935;28;20031;-75
2022/01/14 05:51:48;;;;;;;19.42;9.88;;;;;;;3.44;74.39;103552.72;5107383;28;20028;-75
2022/01/14 05:54:15;;;;;;;12.73;9.57;;;;;;;3.46;75.04;103558.09;5097596;28;20040;-75
2022/01/14 05:56:40;;;;;;;16.25;9.13;;;;;;;3.42;74.61;103554.78;5105241;28;20088;-75
2022/01/14 05:59:06;;;;;;;13.10;9.60;;;;;;;3.42;74.74;103548.41;5111856;28;20491;-75
2022/01/14 06:01:31;;;;;;;13.65;9.40;;;;;;;3.45;75.01;103553.59;5102759;28;20032;-75
2022/01/14 06:03:59;;;;;;;15.35;9.98;;;;;;;3.44;74.90;103558.22;5112701;28;20016;-75
2022/01/14 06:06:25;;;;;;;14.80;9.68;;;;;;;3.43;74.44;103552.88;5099912;28;20038;-76
2022/01/14 06:08:51;;;;;;;13.43;10.15;;;;;;;3.47;75.04;103568.06;5113190;28;20036;-76
2022/01/14 06:11:17;;;;;;;11.77;9.38;;;;;;;3.42;74.73;103562.13;5101756;28;20028;-75
2022/01/14 06:13:42;;;;;;;13.60;10.00;;;;;;;3.41;75.03;103557.63;5108655;28;20202;-75
2022/01/14 06:16:07;;;;;;;15.35;10.70;;;;;;;3.40;75.03;103572.38;5113344;28;20439;-75
2022/01/14 06:18:33;;;;;;;17.88;11.38;;;;;;;3.39;74.88;103562.41;5104747;28;20036;-76
2022/01/14 06:20:58;;;;;;;13.20;10.45;;;;;;;3.38;75.03;103568.88;5107999;28;20044;-76
2022/01/14 06:23:23;;;;;;;13.88;10.10;;;;;;;3.39;74.99;103585.25;5101749;28;20036;-76
2022/01/14 06:25:49;;;;;;;18.90;11.25;;;;;;;3.36;74.35;103571.78;5105720;28;20027;-76
2022/01/14 06:28:15;;;;;;;13.05;10.38;;;;;;;3.38;74.66;103561.53;5101285;28;20040;-76
2022/01/14 06:30:40;;;;;;;14.32;10.73;;;;;;;3.43;75.14;103566.63;5101443;28;20475;-76
2022/01/14 06:33:06;;;;;;;14.13;11.55;;;;;;;3.43;74.62;103583.94;5102569;28;20028;-75
2022/01/14 06:35:31;;;;;;;17.83;11.18;;;;;;;3.37;74.85;103581.75;5107850;28;20043;-76
2022/01/14 06:37:57;;;;;;;15.90;11.43;;;;;;;3.45;74.29;103570.06;5105904;28;20081;-75
2022/01/14 06:40:23;;;;;;;18.98;11.23;;;;;;;3.38;74.32;103574.38;5108994;28;20032;-75
2022/01/14 06:42:48;;;;;;;17.92;11.05;;;;;;;3.41;74.39;103565.88;5113471;28;20028;-75
2022/01/14 06:45:13;;;;;;;14.18;10.80;;;;;;;3.42;74.80;103554.78;5095873;28;20088;-75
2022/01/14 06:47:38;;;;;;;15.75;10.75;;;;;;;3.39;74.35;103554.19;5105773;28;20039;-74
2022/01/14 06:50:04;;;;;;;14.45;11.18;;;;;;;3.40;74.63;103553.16;5109841;28;20484;-74
2022/01/14 06:52:29;;;;;;;14.88;10.73;;;;;;;3.37;74.43;103542.44;5106682;28;20043;-73
2022/01/14 06:54:55;;;;;;;20.85;11.35;;;;;;;3.35;74.89;103556.34;5104957;28;20683;-74
2022/01/14 06:57:23;;;;;;;15.23;11.13;;;;;;;3.39;74.56;103554.19;5110387;28;20085;-71
2022/01/14 06:59:48;;;;;;;16.17;12.10;;;;;;;3.39;74.64;103554.19;5118494;27;20080;-73
2022/01/14 07:02:13;;;;;;;19.05;12.57;;;;;;;3.38;75.09;103557.91;5100127;28;20417;-76
2022/01/14 07:04:39;;;;;;;18.48;12.45;;;;;;;3.40;74.67;103562.25;5107731;28;20027;-72
2022/01/14 07:07:04;;;;;;;26.05;12.80;;;;;;;3.41;74.63;103560.38;5112155;28;20062;-73
2022/01/14 07:09:30;;;;;;;28.38;13.32;;;;;;;3.32;74.13;103575.81;5110907;28;20039;-73
2022/01/14 07:11:58;;;;;;;16.95;12.23;;;;;;;3.34;74.27;103570.19;5112672;28;20077;-72
2022/01/14 07:14:24;;;;;;;16.17;12.60;;;;;;;3.33;74.80;103580.28;5111999;27;20034;-74
2022/01/14 07:16:49;;;;;;;20.75;13.48;;;;;;;3.38;74.30;103575.28;5108642;28;20457;-74
2022/01/14 07:19:17;;;;;;;26.65;13.55;;;;;;;3.30;74.69;103572.34;5109160;27;20031;-71
2022/01/14 07:21:42;;;;;;;17.88;13.07;;;;;;;3.38;74.79;103588.09;5108678;28;20039;-74
2022/01/14 07:24:09;;;;;;;22.40;13.70;;;;;;;3.35;74.79;103588.41;5107786;27;20032;-71
2022/01/14 07:26:35;;;;;;;23.63;13.45;;;;;;;3.36;74.80;103592.88;5107083;28;20083;-73
2022/01/14 07:29:01;;;;;;;21.00;14.00;;;;;;;3.31;74.79;103590.56;5101970;28;20127;-71
2022/01/14 07:31:26;;;;;;;28.10;15.00;;;;;;;3.30;74.77;103587.94;5111541;27;20123;-72
2022/01/14 07:33:51;;;;;;;22.67;14.18;;;;;;;3.33;75.82;103576.69;5109696;27;20030;-71
2022/01/14 07:36:17;;;;;;;25.23;14.23;;;;;;;3.31;74.88;103578.72;5104402;27;20044;-71
2022/01/14 07:38:42;;;;;;;21.33;14.57;;;;;;;3.28;74.42;103579.84;5114953;27;20027;-73
2022/01/14 07:41:07;;;;;;;25.42;15.05;;;;;;;3.27;74.10;103588.22;5124905;27;20039;-71
2022/01/14 07:43:35;;;;;;;18.98;13.63;;;;;;;3.69;78.77;103591.69;5101473;27;20030;-68
2022/01/14 07:46:00;;;;;;;22.92;15.23;;;;;;;3.55;74.67;103581.97;5099045;27;20642;-72
2022/01/14 07:48:26;;;;;;;31.83;15.43;;;;;;;3.54;74.31;103583.00;5108605;27;20031;-70
2022/01/14 07:50:51;;;;;;;25.38;15.38;;;;;;;3.47;74.08;103578.19;5102807;28;20027;-70
2022/01/14 07:53:16;;;;;;;21.05;15.60;;;;;;;3.45;74.30;103572.81;5105689;28;20102;-70
2022/01/14 07:55:42;;;;;;;24.17;15.75;;;;;;;3.40;74.40;103570.50;5104732;28;20058;-73
2022/01/14 07:58:07;;;;;;;25.27;14.77;;;;;;;3.37;74.77;103579.00;5103485;28;20072;-71
2022/01/14 08:00:35;;;;;;;23.10;15.38;;;;;;;3.37;74.54;103576.25;5095760;27;20027;-68
2022/01/14 08:03:01;;;;;;;29.42;15.60;;;;;;;3.32;74.70;103574.94;5100051;27;20479;-72
2022/01/14 08:05:27;;;;;;;22.73;14.82;;;;;;;3.33;74.31;103572.06;5104404;28;20049;-72
2022/01/14 08:07:55;;;;;;;24.10;15.30;;;;;;;3.32;74.77;103578.56;5115004;27;20031;-71
2022/01/14 08:10:20;;;;;;;24.42;15.75;;;;;;;3.32;74.55;103592.28;5112790;27;20345;-69
2022/01/14 08:12:46;;;;;;;21.48;15.07;;;;;;;3.35;74.76;103596.66;5113154;27;20028;-68
2022/01/14 08:15:12;;;;;;;29.60;15.50;;;;;;;3.30;74.88;103593.41;5114966;27;20047;-69
2022/01/14 08:17:38;;;;;;;22.73;15.32;;;;;;;3.27;74.86;103582.75;5110909;28;20031;-67
2022/01/14 08:20:05;;;;;;;23.65;15.70;;;;;;;3.28;75.44;103579.84;5125114;27;20020;-67
2022/01/14 08:22:31;;;;;;;24.70;15.63;;;;;;;3.28;74.94;103570.75;5104695;28;20389;-67
2022/01/14 08:24:57;;;;;;;30.92;15.25;;;;;;;3.26;75.42;103564.50;5110891;28;20031;-67
2022/01/14 08:27:23;;;;;;;23.75;16.05;;;;;;;3.28;75.18;103573.50;5098716;28;20038;-66
2022/01/14 08:29:50;;;;;;;23.83;15.88;;;;;;;3.33;75.02;103580.28;5097931;28;20035;-67
2022/01/14 08:32:15;;;;;;;23.02;15.75;;;;;;;3.33;74.93;103577.53;5090236;28;20016;-67
2022/01/14 08:34:41;;;;;;;23.58;15.90;;;;;;;3.34;75.21;103562.84;5103410;28;20490;-67
2022/01/14 08:37:06;;;;;;;22.73;16.25;;;;;;;3.35;75.24;103555.47;5109704;28;20031;-69
2022/01/14 08:39:31;;;;;;;26.08;16.33;;;;;;;3.36;75.53;103565.44;5102018;28;20471;-70
2022/01/14 08:41:58;;;;;;;32.63;16.00;;;;;;;3.35;75.29;103558.22;5112855;28;20024;-69
2022/01/14 08:44:24;;;;;;;24.95;15.85;;;;;;;3.32;74.92;103578.56;5110808;28;20028;-71
2022/01/14 08:46:50;;;;;;;22.45;15.23;;;;;;;3.37;75.42;103600.09;5109811;28;20026;-69
2022/01/14 08:49:16;;;;;;;28.40;15.68;;;;;;;3.34;75.02;103589.41;5112670;28;20031;-70
2022/01/14 08:51:42;;;;;;;21.42;14.95;;;;;;;3.33;75.74;103599.50;5091637;28;20039;-69
2022/01/14 08:54:08;;;;;;;24.75;16.27;;;;;;;3.33;75.02;103595.91;5107697;28;20048;-71
2022/01/14 08:56:34;;;;;;;24.98;16.60;;;;;;;3.34;75.64;103584.81;5108209;28;20059;-71
2022/01/14 08:59:00;;;;;;;30.90;16.38;;;;;;;3.33;75.77;103565.69;5099336;28;20043;-70
2022/01/14 09:01:26;;;;;;;29.55;16.45;;;;;;;3.32;75.37;103563.97;5104401;28;20108;-70
2022/01/14 09:03:51;;;;;;;23.63;17.27;;;;;;;3.35;75.74;103572.81;5119106;28;20063;-71
2022/01/14 09:06:17;;;;;;;28.27;16.98;;;;;;;3.39;75.60;103565.16;5098553;28;20030;-70
2022/01/14 09:08:42;;;;;;;27.67;17.75;;;;;;;3.42;75.57;103573.13;5095191;28;20039;-69
2022/01/14 09:11:08;;;;;;;25.35;18.05;;;;;;;3.43;75.45;103563.88;5101626;28;20196;-67
2022/01/14 09:13:34;;;;;;;25.52;17.48;;;;;;;3.48;75.46;103580.78;5094768;28;20081;-69
2022/01/14 09:15:59;;;;;;;27.50;17.85;;;;;;;3.49;75.77;103576.16;5104237;28;20023;-67
2022/01/14 09:18:25;;;;;;;27.25;17.17;;;;;;;3.50;75.64;103580.63;5099350;28;20039;-68
2022/01/14 09:20:51;;;;;;;24.55;17.48;;;;;;;3.48;75.96;103574.44;5102342;28;20933;-67
2022/01/14 09:23:23;;;;;;;27.55;18.90;;;;;;;3.50;75.73;103577.88;5099093;28;20020;-66
2022/01/14 09:25:48;;;;;;;28.70;18.23;;;;;;;3.51;75.61;103574.16;5096560;28;20020;-68
2022/01/14 09:28:14;;;;;;;33.03;18.33;;;;;;;3.50;76.45;103569.66;5097146;28;20185;-67
2022/01/14 09:30:39;;;;;;;28.08;18.65;;;;;;;3.50;75.38;103584.28;5089503;28;20024;-68
2022/01/14 09:33:04;;;;;;;32.50;19.13;;;;;;;3.51;75.95;103586.00;5100388;28;20411;-65
2022/01/14 09:35:29;;;;;;;25.98;18.27;;;;;;;3.54;76.06;103573.88;5111368;28;20034;-67
2022/01/14 09:37:55;;;;;;;33.00;19.27;;;;;;;3.54;76.21;103582.13;5106687;28;20052;-67
2022/01/14 09:40:20;;;;;;;28.15;19.33;;;;;;;3.60;76.41;103573.31;5105863;27;20096;-66
2022/01/14 09:42:47;;;;;;;27.63;18.58;;;;;;;3.63;76.65;103584.03;5113973;28;20027;-68
2022/01/14 09:45:13;;;;;;;32.90;18.88;;;;;;;3.62;76.29;103583.16;5108961;28;20039;-67
2022/01/14 09:47:42;;;;;;;30.00;20.35;;;;;;;3.59;76.63;103577.94;5099927;27;20035;-69
2022/01/14 09:50:08;;;;;;;29.17;19.00;;;;;;;3.61;76.35;103591.50;5101627;28;20028;-69
2022/01/14 09:52:35;;;;;;;40.45;19.50;;;;;;;3.62;76.22;103588.66;5103024;28;20030;-69
2022/01/14 09:55:01;;;;;;;33.53;20.83;;;;;;;3.63;76.68;103598.63;5105897;28;20133;-65
2022/01/14 09:57:26;;;;;;;30.70;19.60;;;;;;;3.69;76.60;103600.81;5105473;28;20062;-67
2022/01/14 09:59:51;;;;;;;31.88;20.50;;;;;;;3.74;76.80;103600.38;5099427;28;20154;-65
2022/01/14 10:02:35;;;;;;;22.27;13.73;;;;;;;4.17;80.08;103607.41;5098937;28;20043;-65
2022/01/14 10:05:02;;;;;;;29.15;19.30;;;;;;;4.16;77.12;103605.66;5100332;28;20032;-67
2022/01/14 10:07:28;;;;;;;31.17;19.80;;;;;;;4.08;76.42;103600.88;5104493;28;20107;-66
2022/01/14 10:09:59;;;;;;;27.40;18.65;;;;;;;4.01;76.03;103605.22;5105501;27;20474;-67
2022/01/14 10:12:26;;;;;;;29.98;19.35;;;;;;;3.97;75.99;103602.88;5098589;28;20027;-66
2022/01/14 10:15:09;;;;;;;32.40;19.90;;;;;;;3.94;76.52;103607.66;5105312;28;20460;-67
2022/01/14 10:17:44;;;;;;;30.48;19.67;;;;;;;3.91;75.92;103609.81;5121307;27;20076;-67
2022/01/14 10:20:11;;;;;;;29.35;19.50;;;;;;;3.90;76.03;103611.69;5110718;27;20027;-69
2022/01/14 10:22:45;;;;;;;28.67;18.52;;;;;;;3.88;76.06;103619.19;5104092;28;20092;-69
2022/01/14 10:25:20;;;;;;;29.98;19.27;;;;;;;3.88;76.31;103621.09;5095841;28;20114;-68
2022/01/14 10:27:49;;;;;;;29.48;19.02;;;;;;;3.84;75.93;103617.75;5108504;27;20039;-67
2022/01/14 10:30:24;;;;;;;29.95;19.50;;;;;;;3.84;76.62;103603.16;5099634;28;20063;-66
2022/01/14 10:32:57;;;;;;;28.45;18.63;;;;;;;3.86;76.97;103604.75;5100603;28;20027;-67
2022/01/14 10:35:24;;;;;;;34.20;19.50;;;;;;;3.85;76.88;103610.38;5102499;27;20031;-67
2022/01/14 10:37:50;;;;;;;30.92;20.55;;;;;;;3.87;76.52;103611.09;5101989;28;20463;-67
2022/01/14 10:40:18;;;;;;;27.65;19.25;;;;;;;3.88;76.76;103612.84;5102101;28;20030;-67
2022/01/14 10:42:45;;;;;;;32.67;20.25;;;;;;;3.91;76.63;103598.81;5103518;28;20031;-67
2022/01/14 10:45:22;;;;;;;33.28;20.92;;;;;;;3.96;77.04;103607.50;5101253;28;20035;-66
2022/01/14 10:47:53;;;;;;;32.47;20.45;;;;;;;3.92;77.26;103589.56;5106745;28;20060;-66
2022/01/14 10:50:25;;;;;;;29.33;20.33;;;;;;;3.94;77.00;103593.91;5100030;28;20459;-69
2022/01/14 10:52:51;;;;;;;29.13;19.35;;;;;;;3.99;76.87;103595.38;5105967;28;20028;-68
2022/01/14 10:55:28;;;;;;;31.95;20.75;;;;;;;3.99;77.08;103593.47;5109570;28;20115;-70
2022/01/14 10:57:53;;;;;;;33.08;22.10;;;;;;;3.94;76.79;103593.06;5107593;28;20035;-78
2022/01/14 11:00:19;;;;;;;36.13;21.42;;;;;;;3.96;77.08;103585.53;5098276;28;20080;-70
2022/01/14 11:02:52;;;;;;;31.65;19.70;;;;;;;3.96;77.13;103591.00;5099808;28;20027;-70
2022/01/14 11:05:20;;;;;;;32.03;21.35;;;;;;;3.97;77.34;103587.28;5108055;27;20038;-69
2022/01/14 11:07:48;;;;;;;36.13;22.27;;;;;;;3.98;77.52;103580.75;5101064;28;20063;-69
2022/01/14 11:10:15;;;;;;;31.65;20.60;;;;;;;4.04;76.91;103571.06;5104491;28;20088;-69
2022/01/14 11:12:42;;;;;;;32.85;21.92;;;;;;;4.05;77.04;103572.78;5106840;28;20058;-69
2022/01/14 11:15:08;;;;;;;32.08;21.75;;;;;;;4.05;76.74;103568.19;5110237;28;20024;-69
2022/01/14 11:17:36;;;;;;;36.85;24.33;;;;;;;4.08;76.90;103567.88;5110565;28;20031;-68
2022/01/14 11:20:04;;;;;;;41.85;25.67;;;;;;;4.14;76.88;103561.81;5112078;28;20066;-69
2022/01/14 11:25:13;;;;;;;37.60;24.65;;;;;;;4.14;76.96;103569.19;5106375;28;20089;-69
2022/01/14 11:27:39;;;;;;;37.42;24.10;;;;;;;4.16;77.49;103564.41;5110721;28;20027;-70
2022/01/14 11:30:12;;;;;;;36.53;24.90;;;;;;;4.21;77.33;103573.13;5106181;28;20023;-72
2022/01/14 11:32:58;;;;;;;36.40;23.40;;;;;;;4.24;77.32;103572.81;5112338;28;20051;-72
2022/01/14 11:35:25;;;;;;;38.80;24.08;;;;;;;4.25;77.13;103568.19;5105111;28;20486;-69
2022/01/14 11:37:51;;;;;;;34.03;22.55;;;;;;;4.23;77.16;103567.47;5101949;28;20028;-69
2022/01/14 11:40:18;;;;;;;39.08;24.58;;;;;;;4.27;77.39;103574.41;5110230;28;20039;-68
2022/01/14 11:43:06;;;;;;;36.10;24.00;;;;;;;4.29;77.71;103577.91;5105678;28;20020;-69